Time;durP1;ratioP1;P1;durP2;ratioP2;P2;SDS_P1;SDS_P2;PMS_P1;PMS_P2;Temp;Humidity;BMP_temperature;BMP_pressure;BME280_temperature;BME280_humidity;BME280_pressure;Samples;Min_cycle;Max_cycle;Signal;HPM_P1;HPM_P2
2021/05/27 00:02:15;;;;;;;1.40;1.30;;;11.40;99.90;;;;;;5100212;28;20181;-47
2021/05/27 00:04:40;;;;;;;4.20;1.27;;;11.40;99.90;;;;;;5098533;28;20235;-52
2021/05/27 00:07:06;;;;;;;2.23;1.20;;;11.40;99.90;;;;;;5095238;28;20568;-54
2021/05/27 00:09:31;;;;;;;1.63;1.47;;;11.50;99.90;;;;;;5096436;28;20205;-55
2021/05/27 00:11:57;;;;;;;2.40;1.33;;;11.60;99.90;;;;;;5096079;28;20249;-55
2021/05/27 00:14:23;;;;;;;2.73;1.20;;;11.70;99.90;;;;;;5096430;28;20545;-47
2021/05/27 00:16:49;;;;;;;1.63;1.30;;;11.70;99.90;;;;;;5096238;28;20272;-47
2021/05/27 00:19:15;;;;;;;1.40;1.30;;;11.80;99.90;;;;;;5096936;28;20172;-53
2021/05/27 00:21:40;;;;;;;1.30;1.20;;;11.80;99.90;;;;;;5095316;28;20185;-47
2021/05/27 00:24:06;;;;;;;2.73;1.47;;;11.90;99.90;;;;;;5096281;28;20169;-53
2021/05/27 00:26:32;;;;;;;1.50;1.30;;;11.80;99.90;;;;;;5096311;28;20300;-57
2021/05/27 00:28:58;;;;;;;2.37;1.30;;;11.90;99.90;;;;;;5095605;28;20173;-52
2021/05/27 00:31:24;;;;;;;3.07;1.20;;;11.80;99.90;;;;;;5096243;28;20625;-48
2021/05/27 00:33:49;;;;;;;1.53;1.10;;;11.90;99.90;;;;;;5095968;28;20177;-47
2021/05/27 00:36:15;;;;;;;2.40;1.43;;;11.90;99.90;;;;;;5095209;28;20287;-51
2021/05/27 00:38:40;;;;;;;1.50;1.20;;;11.90;99.90;;;;;;5095699;28;20197;-53
2021/05/27 00:41:06;;;;;;;2.00;1.50;;;11.80;99.90;;;;;;5095754;28;20637;-50
2021/05/27 00:43:31;;;;;;;1.50;1.23;;;11.80;99.90;;;;;;5095463;28;20644;-56
2021/05/27 00:45:57;;;;;;;1.40;1.30;;;11.70;99.90;;;;;;5095717;28;20641;-58
2021/05/27 00:51:07;;;;;;;1.40;1.30;;;11.70;99.90;;;;;;5096041;28;20738;-48
2021/05/27 00:53:33;;;;;;;1.70;1.53;;;11.60;99.90;;;;;;5095121;28;20166;-47
2021/05/27 00:55:58;;;;;;;1.27;1.17;;;11.60;99.90;;;;;;5095585;28;20186;-52
2021/05/27 00:58:25;;;;;;;1.37;0.97;;;11.60;99.90;;;;;;5095355;28;20170;-49
2021/05/27 01:00:50;;;;;;;1.33;1.23;;;11.50;99.90;;;;;;5095259;28;20181;-51
2021/05/27 01:03:17;;;;;;;1.80;1.27;;;11.60;99.90;;;;;;5095285;28;20193;-52
2021/05/27 01:05:43;;;;;;;1.87;1.50;;;11.50;99.90;;;;;;5096073;28;20192;-49
2021/05/27 01:08:09;;;;;;;2.30;1.10;;;11.40;99.90;;;;;;5095507;28;20258;-51
2021/05/27 01:10:34;;;;;;;3.07;1.20;;;11.40;99.90;;;;;;5095383;28;20666;-47
2021/05/27 01:13:01;;;;;;;1.53;1.20;;;11.30;99.90;;;;;;5094387;28;20221;-50
2021/05/27 01:15:35;;;;;;;2.93;1.73;;;11.30;99.90;;;;;;5095029;28;20530;-53
2021/05/27 01:18:15;;;;;;;1.17;1.10;;;11.40;99.90;;;;;;5092793;28;20237;-54
2021/05/27 01:20:46;;;;;;;2.80;1.53;;;11.50;99.90;;;;;;5086052;28;20177;-49
2021/05/27 01:23:13;;;;;;;1.60;1.40;;;11.50;99.90;;;;;;5094713;28;20197;-53
2021/05/27 01:25:40;;;;;;;1.83;1.47;;;11.30;99.90;;;;;;5095331;28;20166;-49
2021/05/27 01:28:05;;;;;;;1.27;1.00;;;11.20;99.90;;;;;;5075488;28;20274;-47
2021/05/27 01:30:31;;;;;;;2.20;1.20;;;11.10;99.90;;;;;;5081578;28;20296;-50
2021/05/27 01:32:56;;;;;;;1.73;1.30;;;11.00;99.90;;;;;;5094852;28;20683;-49
2021/05/27 01:35:24;;;;;;;1.50;1.40;;;10.90;99.90;;;;;;5094713;28;20272;-58
2021/05/27 01:37:50;;;;;;;1.30;1.20;;;10.90;99.90;;;;;;5094962;28;20205;-51
2021/05/27 01:40:24;;;;;;;1.50;1.40;;;10.80;99.90;;;;;;5095165;28;20560;-51
2021/05/27 01:42:50;;;;;;;1.30;1.20;;;10.80;99.90;;;;;;5095190;28;20238;-47
2021/05/27 01:45:17;;;;;;;2.73;1.23;;;10.70;99.90;;;;;;5094878;28;20178;-49
2021/05/27 01:47:43;;;;;;;1.40;1.20;;;10.70;99.90;;;;;;5094887;28;20210;-50
2021/05/27 01:50:10;;;;;;;1.43;1.10;;;10.60;99.90;;;;;;5094828;28;20194;-52
2021/05/27 01:52:36;;;;;;;1.77;1.30;;;10.60;99.90;;;;;;5093518;28;20197;-49
2021/05/27 01:55:02;;;;;;;1.87;1.20;;;10.60;99.90;;;;;;5094988;28;20192;-55
2021/05/27 01:57:28;;;;;;;1.23;1.13;;;10.60;99.90;;;;;;5093674;28;20205;-52
2021/05/27 01:59:53;;;;;;;1.40;1.30;;;10.60;99.90;;;;;;5094869;28;20184;-50
2021/05/27 02:02:19;;;;;;;2.60;1.43;;;10.60;99.90;;;;;;5094366;28;20186;-56
2021/05/27 02:04:44;;;;;;;1.73;1.20;;;10.60;99.90;;;;;;5093298;28;20202;-55
2021/05/27 02:07:12;;;;;;;1.60;1.50;;;10.60;99.90;;;;;;5094529;28;20649;-55
2021/05/27 02:09:38;;;;;;;1.10;1.00;;;10.60;99.90;;;;;;5093713;28;20209;-54
2021/05/27 02:12:05;;;;;;;1.20;1.10;;;10.60;99.90;;;;;;5094130;28;20232;-53
2021/05/27 02:14:30;;;;;;;1.30;1.20;;;10.60;99.90;;;;;;5092855;28;20188;-56
2021/05/27 02:16:56;;;;;;;2.63;1.30;;;10.70;99.90;;;;;;5094332;28;20198;-52
2021/05/27 02:19:22;;;;;;;1.73;1.30;;;10.70;99.90;;;;;;5094365;28;20173;-52
2021/05/27 02:21:48;;;;;;;1.43;1.10;;;10.70;99.90;;;;;;5093185;28;20205;-47
2021/05/27 02:24:14;;;;;;;1.13;1.10;;;10.80;99.90;;;;;;5094872;28;20189;-52
2021/05/27 02:26:39;;;;;;;1.50;1.40;;;10.80;99.90;;;;;;5094818;28;20272;-53
2021/05/27 02:29:06;;;;;;;2.60;0.97;;;10.80;99.90;;;;;;5093627;28;20185;-49
2021/05/27 02:31:32;;;;;;;2.47;1.30;;;10.70;99.90;;;;;;5093035;28;20205;-54
2021/05/27 02:33:58;;;;;;;1.00;1.00;;;10.70;99.90;;;;;;5093255;28;20172;-52
2021/05/27 02:36:24;;;;;;;3.03;1.40;;;10.70;99.90;;;;;;5083447;28;20276;-51
2021/05/27 02:38:50;;;;;;;0.93;0.93;;;10.80;99.90;;;;;;5092859;28;20557;-52
2021/05/27 02:41:16;;;;;;;2.00;1.23;;;10.90;99.90;;;;;;5093640;28;20270;-50
2021/05/27 02:43:42;;;;;;;1.30;1.20;;;11.00;99.90;;;;;;5093060;28;20205;-56
2021/05/27 02:46:08;;;;;;;1.50;1.40;;;11.10;99.90;;;;;;5093553;28;20185;-53
2021/05/27 02:48:34;;;;;;;1.93;1.47;;;11.00;99.90;;;;;;5093851;28;20189;-51
2021/05/27 02:51:01;;;;;;;2.33;1.27;;;10.90;99.90;;;;;;5092881;28;20202;-47
2021/05/27 02:53:26;;;;;;;1.47;1.37;;;10.90;99.90;;;;;;5093609;28;20579;-47
2021/05/27 02:55:52;;;;;;;1.57;1.33;;;10.80;99.90;;;;;;5092985;28;20217;-54
2021/05/27 02:58:18;;;;;;;2.40;1.60;;;10.80;99.90;;;;;;5093412;28;20256;-48
2021/05/27 03:00:44;;;;;;;1.63;1.40;;;10.70;99.90;;;;;;5093837;28;20217;-52
2021/05/27 03:03:09;;;;;;;1.23;1.13;;;10.60;99.90;;;;;;5093125;28;20272;-54
2021/05/27 03:05:35;;;;;;;3.33;1.20;;;10.60;99.90;;;;;;5093983;28;20213;-47
2021/05/27 03:08:00;;;;;;;1.50;1.40;;;10.50;99.90;;;;;;5094183;28;20193;-47
2021/05/27 03:10:26;;;;;;;1.60;1.30;;;10.50;99.90;;;;;;5093602;28;20288;-48
2021/05/27 03:12:51;;;;;;;1.70;1.30;;;10.50;99.90;;;;;;5093805;28;20185;-53
2021/05/27 03:15:17;;;;;;;1.53;1.40;;;10.60;99.90;;;;;;5092379;28;20204;-52
2021/05/27 03:17:44;;;;;;;3.07;1.50;;;10.50;99.90;;;;;;5093383;28;20227;-58
2021/05/27 03:20:10;;;;;;;1.87;1.73;;;10.50;99.90;;;;;;5093446;28;20178;-57
2021/05/27 03:22:36;;;;;;;4.17;1.90;;;10.40;99.90;;;;;;5092533;28;20545;-47
2021/05/27 03:25:02;;;;;;;3.50;1.90;;;10.30;99.90;;;;;;5093297;28;20698;-48
2021/05/27 03:27:27;;;;;;;2.87;1.90;;;10.20;99.90;;;;;;5093653;28;20252;-53
2021/05/27 03:29:53;;;;;;;2.40;1.70;;;10.10;99.90;;;;;;5093387;28;20592;-54
2021/05/27 03:32:19;;;;;;;1.67;1.30;;;10.00;99.90;;;;;;5092292;28;20194;-58
2021/05/27 03:34:44;;;;;;;2.10;1.90;;;10.00;99.90;;;;;;5093315;28;20595;-56
2021/05/27 03:37:10;;;;;;;2.83;1.70;;;10.00;99.90;;;;;;5093097;28;20194;-56
2021/05/27 03:39:35;;;;;;;1.83;1.73;;;10.10;99.90;;;;;;5092510;28;20188;-52
2021/05/27 03:42:01;;;;;;;2.00;1.83;;;10.10;99.90;;;;;;5095873;28;20219;-47
2021/05/27 03:44:26;;;;;;;1.77;1.63;;;10.10;99.90;;;;;;5096814;28;20630;-47
2021/05/27 03:46:52;;;;;;;2.00;1.80;;;10.10;99.90;;;;;;5097326;28;20595;-52
2021/05/27 03:49:17;;;;;;;2.83;2.30;;;10.10;99.90;;;;;;5096833;28;20189;-50
2021/05/27 03:51:43;;;;;;;2.57;1.80;;;10.10;99.90;;;;;;5096988;28;20673;-55
2021/05/27 03:54:08;;;;;;;1.60;1.50;;;10.20;99.90;;;;;;5095210;28;20546;-55
2021/05/27 03:56:34;;;;;;;2.57;2.00;;;10.20;99.90;;;;;;5096900;28;20661;-52
2021/05/27 04:01:44;;;;;;;1.90;1.73;;;10.20;99.90;;;;;;5096950;28;20213;-47
2021/05/27 04:07:14;;;;;;;2.20;2.00;;;10.30;99.90;;;;;;5076410;28;20617;-50
2021/05/27 04:09:41;;;;;;;1.80;1.70;;;10.30;99.90;;;;;;5088860;28;20214;-49
2021/05/27 04:17:37;;;;;;;2.67;2.03;;;10.30;99.90;;;;;;5092560;28;20259;-51
2021/05/27 04:20:05;;;;;;;2.43;1.97;;;10.30;99.90;;;;;;5096308;28;20198;-47
2021/05/27 04:22:30;;;;;;;3.90;2.60;;;10.30;99.90;;;;;;5094620;28;20664;-47
2021/05/27 04:24:56;;;;;;;2.47;2.23;;;10.40;99.90;;;;;;5096630;28;20189;-49
2021/05/27 04:27:21;;;;;;;2.73;2.20;;;10.50;99.90;;;;;;5096082;28;20210;-49
2021/05/27 04:29:47;;;;;;;2.37;2.13;;;10.40;99.90;;;;;;5095982;28;20236;-47
2021/05/27 04:32:54;;;;;;;2.30;2.00;;;10.40;99.90;;;;;;5094759;28;20222;-52
2021/05/27 04:34:58;;;;;;;2.20;2.00;;;10.40;99.90;;;;;;5092683;28;20178;-51
2021/05/27 04:37:24;;;;;;;3.70;2.20;;;10.50;99.90;;;;;;5095167;28;20223;-54
2021/05/27 04:39:49;;;;;;;2.47;2.27;;;10.50;99.90;;;;;;5095328;28;20220;-58
2021/05/27 04:42:16;;;;;;;2.00;1.90;;;10.50;99.90;;;;;;5095856;28;20194;-57
2021/05/27 04:44:41;;;;;;;2.83;2.23;;;10.60;99.90;;;;;;5094898;28;20204;-53
2021/05/27 04:47:07;;;;;;;5.47;2.57;;;10.50;99.90;;;;;;5094787;28;20233;-52
2021/05/27 04:49:32;;;;;;;2.67;2.40;;;10.60;99.90;;;;;;5095063;28;20205;-52
2021/05/27 04:51:58;;;;;;;2.30;2.10;;;10.50;99.90;;;;;;5094973;28;20166;-48
2021/05/27 04:54:23;;;;;;;2.50;2.30;;;10.40;99.90;;;;;;5091036;28;20197;-49
2021/05/27 04:56:49;;;;;;;2.83;2.00;;;10.40;99.90;;;;;;5093913;28;20198;-51
2021/05/27 04:59:14;;;;;;;2.70;2.47;;;10.40;99.90;;;;;;5095160;28;20185;-54
2021/05/27 05:01:40;;;;;;;4.53;2.63;;;10.40;99.90;;;;;;5094243;28;20176;-54
2021/05/27 05:04:06;;;;;;;2.37;2.17;;;10.40;99.90;;;;;;5094596;28;20181;-52
2021/05/27 05:06:31;;;;;;;2.47;2.27;;;10.40;99.90;;;;;;5087853;28;20224;-50
2021/05/27 05:08:57;;;;;;;2.50;2.30;;;10.40;99.90;;;;;;5091100;28;20545;-48
2021/05/27 05:11:23;;;;;;;3.67;2.43;;;10.30;99.90;;;;;;5091436;28;20565;-51
2021/05/27 05:13:48;;;;;;;3.57;3.10;;;10.40;99.90;;;;;;5092824;28;20550;-53
2021/05/27 05:16:14;;;;;;;4.33;2.77;;;10.40;99.90;;;;;;5094865;28;20209;-49
2021/05/27 05:18:39;;;;;;;2.80;2.53;;;10.40;99.90;;;;;;5095296;28;20189;-56
2021/05/27 05:21:05;;;;;;;2.30;2.10;;;10.40;99.90;;;;;;5094430;28;20177;-51
2021/05/27 05:23:31;;;;;;;5.10;2.50;;;10.60;99.90;;;;;;5095010;28;20182;-48
2021/05/27 05:25:56;;;;;;;2.63;2.43;;;10.60;99.90;;;;;;5093748;28;20229;-51
2021/05/27 05:28:22;;;;;;;3.07;2.50;;;10.70;99.90;;;;;;5094882;28;20185;-47
2021/05/27 05:30:47;;;;;;;2.27;2.13;;;10.70;99.90;;;;;;5095144;28;20215;-47
2021/05/27 05:33:13;;;;;;;2.67;2.47;;;10.70;99.90;;;;;;5093200;28;20584;-54
2021/05/27 05:35:39;;;;;;;2.47;2.27;;;10.70;99.90;;;;;;5094261;28;20181;-47
2021/05/27 05:38:05;;;;;;;2.33;2.13;;;10.70;99.90;;;;;;5092830;28;20248;-48
2021/05/27 05:40:33;;;;;;;3.77;2.27;;;10.70;99.90;;;;;;5089388;28;20177;-52
2021/05/27 05:43:00;;;;;;;2.27;2.07;;;10.80;99.90;;;;;;5094114;28;20254;-50
2021/05/27 05:45:26;;;;;;;2.60;2.20;;;11.00;99.90;;;;;;5094554;28;20185;-52
2021/05/27 05:47:52;;;;;;;2.70;2.23;;;11.10;99.90;;;;;;5093252;28;20221;-54
2021/05/27 05:53:06;;;;;;;3.03;2.37;;;11.20;99.90;;;;;;5094151;28;20265;-48
2021/05/27 05:55:32;;;;;;;2.13;1.93;;;11.30;99.90;;;;;;5094434;28;20174;-53
2021/05/27 05:57:58;;;;;;;2.40;2.20;;;11.30;99.90;;;;;;5094185;28;20682;-49
2021/05/27 06:00:23;;;;;;;3.40;2.13;;;11.30;99.90;;;;;;5094637;28;20181;-53
2021/05/27 06:02:49;;;;;;;2.30;2.10;;;11.30;99.90;;;;;;5093519;28;20272;-51
2021/05/27 06:05:14;;;;;;;1.73;1.63;;;11.20;99.90;;;;;;5091975;28;20315;-48
2021/05/27 06:07:40;;;;;;;2.50;2.30;;;11.30;99.90;;;;;;5090911;28;20213;-54
2021/05/27 06:10:06;;;;;;;2.87;2.17;;;11.40;99.90;;;;;;5072632;28;20558;-54
2021/05/27 06:12:32;;;;;;;3.50;2.27;;;11.50;99.90;;;;;;5094503;28;20261;-53
2021/05/27 06:14:57;;;;;;;2.97;2.10;;;11.50;99.90;;;;;;5094558;28;20521;-47
2021/05/27 06:17:23;;;;;;;2.10;2.00;;;11.40;99.90;;;;;;5093195;28;20213;-57
2021/05/27 06:19:49;;;;;;;2.33;2.07;;;11.40;99.90;;;;;;5094138;28;20625;-54
2021/05/27 06:22:14;;;;;;;2.30;2.10;;;11.40;99.90;;;;;;5093213;28;20188;-47
2021/05/27 06:24:40;;;;;;;2.63;1.90;;;11.30;99.90;;;;;;5093783;28;20227;-54
2021/05/27 06:27:05;;;;;;;1.80;1.70;;;11.20;99.90;;;;;;5093980;28;20203;-49
2021/05/27 06:29:31;;;;;;;2.40;2.00;;;11.20;99.90;;;;;;5093795;28;20204;-53
2021/05/27 06:31:57;;;;;;;2.00;1.80;;;11.40;99.90;;;;;;5093139;28;20197;-50
2021/05/27 06:34:22;;;;;;;1.70;1.60;;;11.40;99.90;;;;;;5094008;28;20178;-47
2021/05/27 06:36:48;;;;;;;1.80;1.70;;;11.60;99.90;;;;;;5093132;28;20198;-47
2021/05/27 06:39:13;;;;;;;4.13;1.60;;;11.70;99.90;;;;;;5093323;28;20196;-48
2021/05/27 06:41:39;;;;;;;2.73;1.77;;;11.60;99.90;;;;;;5093165;28;20178;-49
2021/05/27 06:44:05;;;;;;;1.70;1.60;;;11.60;99.90;;;;;;5083745;28;20178;-50
2021/05/27 06:46:31;;;;;;;2.03;1.63;;;11.80;99.90;;;;;;5079003;28;20205;-55
2021/05/27 06:48:57;;;;;;;2.60;1.67;;;11.90;99.90;;;;;;5074936;28;20165;-53
2021/05/27 06:51:23;;;;;;;1.93;1.80;;;11.90;99.90;;;;;;5092270;28;20229;-53
2021/05/27 06:53:48;;;;;;;2.37;1.60;;;11.90;99.90;;;;;;5094576;28;20565;-55
2021/05/27 06:56:14;;;;;;;1.73;1.50;;;11.80;99.90;;;;;;5093024;28;20201;-54
2021/05/27 06:58:39;;;;;;;1.70;1.60;;;11.70;99.90;;;;;;5094288;28;20173;-55
2021/05/27 07:01:05;;;;;;;2.00;1.80;;;11.50;99.90;;;;;;5093162;28;20231;-56
2021/05/27 07:03:31;;;;;;;1.53;1.43;;;11.40;99.90;;;;;;5093405;28;20181;-47
2021/05/27 07:05:57;;;;;;;1.97;1.70;;;11.50;99.90;;;;;;5094363;28;20556;-48
2021/05/27 07:08:23;;;;;;;1.70;1.53;;;11.60;99.90;;;;;;5093906;28;20185;-50
2021/05/27 07:10:48;;;;;;;3.47;1.43;;;11.70;99.90;;;;;;5093628;28;20204;-58
2021/05/27 07:13:14;;;;;;;2.33;1.70;;;11.70;99.90;;;;;;5092544;28;20268;-57
2021/05/27 07:15:39;;;;;;;1.50;1.40;;;11.70;99.90;;;;;;5096098;28;20248;-52
2021/05/27 07:18:06;;;;;;;2.57;1.40;;;11.70;99.90;;;;;;5096850;28;20213;-56
2021/05/27 07:20:32;;;;;;;1.30;1.20;;;11.70;99.90;;;;;;5092476;28;20199;-49
2021/05/27 07:22:58;;;;;;;1.10;1.00;;;11.70;99.90;;;;;;5089637;28;20185;-54
2021/05/27 07:25:25;;;;;;;1.50;1.30;;;11.80;99.90;;;;;;5077692;28;20681;-58
2021/05/27 07:27:52;;;;;;;1.00;1.00;;;11.80;99.90;;;;;;5080717;28;20205;-53
2021/05/27 07:30:18;;;;;;;1.40;1.30;;;11.70;99.90;;;;;;5086145;28;20593;-49
2021/05/27 07:32:45;;;;;;;1.50;1.10;;;11.70;99.90;;;;;;5076316;28;20181;-57
2021/05/27 07:35:11;;;;;;;1.47;1.37;;;11.70;99.90;;;;;;5089618;28;20185;-55
2021/05/27 07:37:37;;;;;;;2.60;1.10;;;11.70;99.90;;;;;;5077012;28;20183;-51
2021/05/27 07:40:03;;;;;;;1.10;1.03;;;11.70;99.90;;;;;;5077576;28;20186;-59
2021/05/27 07:42:29;;;;;;;0.93;0.93;;;11.80;99.90;;;;;;5086838;28;20181;-51
2021/05/27 07:44:54;;;;;;;0.97;0.80;;;11.90;99.90;;;;;;5079667;28;20201;-58
2021/05/27 07:47:20;;;;;;;1.33;1.07;;;11.80;99.90;;;;;;5076098;28;20218;-50
2021/05/27 07:49:46;;;;;;;1.60;1.20;;;11.60;99.90;;;;;;5076674;28;20206;-55
2021/05/27 07:52:11;;;;;;;1.30;1.20;;;11.50;99.90;;;;;;5075885;28;20253;-54
2021/05/27 07:54:37;;;;;;;2.43;1.20;;;11.50;99.90;;;;;;5076707;28;20170;-49
2021/05/27 07:57:03;;;;;;;1.40;1.13;;;11.40;99.90;;;;;;5075636;28;20281;-52
2021/05/27 07:59:28;;;;;;;1.43;1.20;;;11.40;99.90;;;;;;5077013;28;20182;-56
2021/05/27 08:01:54;;;;;;;2.23;1.20;;;11.40;99.90;;;;;;5075562;28;20194;-52
2021/05/27 08:04:20;;;;;;;2.23;1.30;;;11.50;99.90;;;;;;5076855;28;20324;-59
2021/05/27 08:06:45;;;;;;;1.27;1.10;;;11.50;99.90;;;;;;5076931;28;20206;-51
2021/05/27 08:09:11;;;;;;;1.90;1.63;;;11.60;99.90;;;;;;5075498;28;20178;-50
2021/05/27 08:11:44;;;;;;;1.87;1.10;;;11.70;99.90;;;;;;5076279;28;20568;-53
2021/05/27 08:14:10;;;;;;;1.33;1.20;;;11.70;99.90;;;;;;5076004;28;20189;-51
2021/05/27 08:16:36;;;;;;;2.57;0.90;;;11.70;99.90;;;;;;5078156;28;20273;-49
2021/05/27 08:19:02;;;;;;;1.00;0.90;;;11.70;99.90;;;;;;5080541;28;20242;-49
2021/05/27 08:21:29;;;;;;;2.80;1.00;;;11.80;99.90;;;;;;5095575;28;20205;-57
2021/05/27 08:23:55;;;;;;;1.07;0.90;;;11.80;99.90;;;;;;5080452;28;20182;-48
2021/05/27 08:26:21;;;;;;;1.20;1.00;;;11.80;99.90;;;;;;5074397;28;20215;-55
2021/05/27 08:28:47;;;;;;;2.70;0.90;;;11.80;99.90;;;;;;5076030;28;20178;-55
2021/05/27 08:31:14;;;;;;;1.00;0.90;;;11.90;99.90;;;;;;5075318;28;20209;-49
2021/05/27 08:33:40;;;;;;;1.67;0.90;;;11.70;99.90;;;;;;5074227;28;20220;-58
2021/05/27 08:36:06;;;;;;;1.90;1.20;;;12.50;99.90;;;;;;5094840;28;20186;-54
2021/05/27 08:38:32;;;;;;;1.53;0.77;;;11.60;99.90;;;;;;5095694;28;20219;-56
2021/05/27 08:40:57;;;;;;;1.17;1.00;;;11.50;99.90;;;;;;5095913;28;20173;-59
2021/05/27 08:43:23;;;;;;;0.87;0.80;;;11.40;99.90;;;;;;5095132;28;20185;-49
2021/05/27 08:45:49;;;;;;;1.57;0.90;;;11.40;99.90;;;;;;5096384;28;20177;-51
2021/05/27 08:48:16;;;;;;;1.03;0.90;;;11.40;99.90;;;;;;5095396;28;20222;-49
2021/05/27 08:50:46;;;;;;;2.67;1.10;;;11.50;99.90;;;;;;5095863;28;20553;-51
2021/05/27 08:53:13;;;;;;;0.73;0.73;;;11.50;99.90;;;;;;5095603;28;20265;-55
2021/05/27 08:55:39;;;;;;;0.90;0.90;;;11.50;99.90;;;;;;5095433;28;20762;-53
2021/05/27 08:58:05;;;;;;;1.20;0.90;;;11.40;99.90;;;;;;5096098;28;20284;-56
2021/05/27 09:00:30;;;;;;;1.57;0.90;;;11.40;99.90;;;;;;5094647;28;20185;-54
2021/05/27 09:03:00;;;;;;;0.90;0.90;;;11.40;99.90;;;;;;5094079;28;20634;-54
2021/05/27 09:05:27;;;;;;;1.13;0.90;;;11.50;99.90;;;;;;5095339;28;20182;-58
2021/05/27 09:07:53;;;;;;;1.30;1.13;;;11.60;99.90;;;;;;5078293;28;20295;-56
2021/05/27 09:10:19;;;;;;;1.40;1.30;;;11.60;99.90;;;;;;5075547;28;20248;-57
2021/05/27 09:12:44;;;;;;;2.57;1.10;;;11.80;99.90;;;;;;5090499;28;20268;-53
2021/05/27 09:15:16;;;;;;;1.17;1.07;;;11.80;99.90;;;;;;5095503;28;20169;-53
2021/05/27 09:17:46;;;;;;;1.17;1.07;;;11.80;99.90;;;;;;5093315;28;20314;-59
2021/05/27 09:20:18;;;;;;;2.20;1.30;;;11.80;99.90;;;;;;5093831;28;20669;-51
2021/05/27 09:22:45;;;;;;;1.20;1.10;;;11.80;99.90;;;;;;5094228;28;20177;-51
2021/05/27 09:25:26;;;;;;;2.07;0.90;;;11.90;99.90;;;;;;5091747;28;20178;-58
2021/05/27 09:27:52;;;;;;;2.13;1.20;;;12.00;99.90;;;;;;5084070;28;20217;-55
2021/05/27 09:30:19;;;;;;;2.33;1.10;;;12.00;99.90;;;;;;5075275;28;20206;-55
2021/05/27 09:32:49;;;;;;;1.33;1.20;;;12.10;99.90;;;;;;5073382;28;20182;-58
2021/05/27 09:35:17;;;;;;;1.20;1.00;;;12.30;99.90;;;;;;5080354;28;20174;-54
2021/05/27 09:37:48;;;;;;;1.20;1.10;;;12.30;99.90;;;;;;5081618;28;20233;-54
2021/05/27 09:40:42;;;;;;;0.97;0.87;;;12.40;99.90;;;;;;5075186;28;20190;-56
2021/05/27 09:43:09;;;;;;;1.33;1.23;;;12.30;99.90;;;;;;5077909;28;20179;-56
2021/05/27 09:45:36;;;;;;;1.20;1.10;;;12.30;99.90;;;;;;5092127;28;20177;-52
2021/05/27 09:48:20;;;;;;;1.37;1.20;;;12.40;99.90;;;;;;5093621;28;20300;-54
2021/05/27 09:50:46;;;;;;;1.00;1.00;;;12.50;99.90;;;;;;5094453;28;20558;-51
2021/05/27 09:53:19;;;;;;;1.43;1.20;;;12.60;99.90;;;;;;5092693;28;20169;-49
2021/05/27 09:55:45;;;;;;;1.60;1.40;;;12.50;99.90;;;;;;5094488;28;20175;-58
2021/05/27 09:58:12;;;;;;;1.37;1.27;;;12.50;99.90;;;;;;5094613;28;20193;-56
2021/05/27 10:00:40;;;;;;;1.47;1.30;;;12.50;99.90;;;;;;5094671;28;20177;-52
2021/05/27 10:03:26;;;;;;;1.90;1.30;;;12.60;99.90;;;;;;5078856;28;20279;-49
2021/05/27 10:05:53;;;;;;;1.73;1.37;;;12.60;99.90;;;;;;5071565;28;20163;-49
2021/05/27 10:08:20;;;;;;;1.47;0.97;;;12.70;99.90;;;;;;5071512;28;20170;-58
2021/05/27 10:10:46;;;;;;;1.13;1.10;;;12.70;99.90;;;;;;5072034;28;20237;-58
2021/05/27 10:13:14;;;;;;;1.47;1.13;;;12.70;99.90;;;;;;5072032;28;20190;-57
2021/05/27 10:15:43;;;;;;;1.27;1.00;;;12.70;99.90;;;;;;5076083;28;20188;-51
2021/05/27 10:18:10;;;;;;;1.20;1.10;;;13.20;99.90;;;;;;5091588;28;20733;-55
2021/05/27 10:20:35;;;;;;;1.70;1.30;;;13.20;99.90;;;;;;5091810;28;20235;-53
2021/05/27 10:23:04;;;;;;;2.10;1.00;;;14.00;99.90;;;;;;5092292;28;20177;-58
2021/05/27 10:25:29;;;;;;;2.17;1.30;;;13.00;99.90;;;;;;5091903;28;20179;-55
2021/05/27 10:27:58;;;;;;;1.10;1.00;;;12.90;99.90;;;;;;5090984;28;20255;-50
2021/05/27 10:30:25;;;;;;;1.20;1.10;;;12.90;99.90;;;;;;5093971;28;20676;-48
2021/05/27 10:32:55;;;;;;;1.00;1.00;;;13.00;99.90;;;;;;5093345;28;20186;-48
2021/05/27 10:35:21;;;;;;;1.43;1.20;;;14.40;99.90;;;;;;5093117;28;20187;-54
2021/05/27 10:37:51;;;;;;;1.60;1.10;;;13.20;99.90;;;;;;5074114;28;20204;-50
2021/05/27 10:40:22;;;;;;;1.57;1.30;;;13.10;99.90;;;;;;5093178;28;20166;-53
2021/05/27 10:42:57;;;;;;;1.63;1.30;;;13.00;99.90;;;;;;5092816;28;20168;-59
2021/05/27 10:45:28;;;;;;;1.57;1.20;;;13.00;99.90;;;;;;5089854;28;20809;-54
2021/05/27 10:48:12;;;;;;;1.30;1.20;;;12.80;99.90;;;;;;5094032;28;20197;-53
2021/05/27 10:50:55;;;;;;;3.07;1.40;;;12.90;99.90;;;;;;5093196;28;20189;-55
2021/05/27 10:53:33;;;;;;;1.53;1.30;;;12.90;99.90;;;;;;5093719;28;20484;-53
2021/05/27 10:56:00;;;;;;;2.10;1.50;;;12.80;99.90;;;;;;5094074;28;20239;-48
2021/05/27 10:58:49;;;;;;;1.30;1.20;;;12.80;99.90;;;;;;5094029;28;20170;-50
2021/05/27 11:01:20;;;;;;;2.07;1.50;;;12.90;99.90;;;;;;5080881;28;20190;-51
2021/05/27 11:03:58;;;;;;;1.40;1.30;;;13.00;99.90;;;;;;5072818;28;20649;-52
2021/05/27 11:06:39;;;;;;;2.50;1.30;;;13.00;99.90;;;;;;5073735;28;20251;-48
2021/05/27 11:09:08;;;;;;;1.20;1.10;;;13.10;99.90;;;;;;5072599;28;20741;-54
2021/05/27 11:11:45;;;;;;;1.20;1.10;;;13.20;99.90;;;;;;5073460;28;20206;-54
2021/05/27 11:14:19;;;;;;;1.10;1.10;;;13.30;99.90;;;;;;5072545;28;20710;-54
2021/05/27 11:17:18;;;;;;;1.77;1.23;;;13.60;99.90;;;;;;5073402;28;20193;-53
2021/05/27 11:20:03;;;;;;;1.80;1.40;;;13.90;99.90;;;;;;5070230;28;20330;-54
2021/05/27 11:25:09;;;;;;;1.63;1.27;;;14.10;99.90;;;;;;5070430;28;20709;-50
2021/05/27 11:27:38;;;;;;;1.67;1.30;;;14.10;99.90;;;;;;5070526;28;20200;-52
2021/05/27 11:30:33;;;;;;;1.23;1.00;;;14.30;99.90;;;;;;5071098;28;20206;-48
2021/05/27 11:33:00;;;;;;;1.70;1.17;;;14.50;99.90;;;;;;5070104;28;20175;-54
2021/05/27 11:35:38;;;;;;;1.80;1.00;;;14.70;99.90;;;;;;5070896;28;20201;-49
2021/05/27 11:38:08;;;;;;;0.97;0.97;;;14.90;99.90;;;;;;5071097;28;20213;-55
2021/05/27 11:40:46;;;;;;;1.00;0.90;;;15.00;99.90;;;;;;5071271;28;20171;-55
2021/05/27 11:43:12;;;;;;;0.93;0.93;;;15.20;99.90;;;;;;5069731;28;20202;-55
2021/05/27 11:45:45;;;;;;;0.93;0.93;;;15.20;99.90;;;;;;5070948;28;20178;-57
2021/05/27 11:50:47;;;;;;;1.67;1.00;;;15.10;99.90;;;;;;5070773;28;20241;-49
2021/05/27 11:53:13;;;;;;;1.53;1.07;;;15.10;99.90;;;;;;5070850;28;20189;-57
2021/05/27 11:55:39;;;;;;;1.20;1.10;;;15.30;99.90;;;;;;5071735;28;20175;-49
2021/05/27 11:58:05;;;;;;;1.57;1.10;;;15.50;99.90;;;;;;5071438;28;20214;-52
2021/05/27 12:00:32;;;;;;;0.93;0.93;;;15.30;99.90;;;;;;5072904;28;20251;-50
2021/05/27 12:03:00;;;;;;;1.20;1.10;;;15.20;99.90;;;;;;5075288;28;20523;-54
2021/05/27 12:05:31;;;;;;;1.37;1.00;;;15.30;99.90;;;;;;5076276;28;20231;-50
2021/05/27 12:08:00;;;;;;;1.73;1.07;;;15.50;99.90;;;;;;5076681;28;20199;-56
2021/05/27 12:10:28;;;;;;;1.30;0.83;;;15.60;99.90;;;;;;5076571;28;20205;-49
2021/05/27 12:12:54;;;;;;;1.37;1.00;;;15.70;99.90;;;;;;5075258;28;20194;-49
2021/05/27 12:15:23;;;;;;;1.50;1.00;;;15.80;99.90;;;;;;5076913;28;20450;-55
2021/05/27 12:17:55;;;;;;;1.00;0.90;;;15.50;99.90;;;;;;5087126;28;20209;-55
2021/05/27 12:20:32;;;;;;;0.90;0.90;;;15.30;99.90;;;;;;5075853;28;20267;-59
2021/05/27 12:23:05;;;;;;;1.20;1.07;;;15.30;99.90;;;;;;5076073;28;20227;-49
2021/05/27 12:25:37;;;;;;;1.03;0.90;;;15.20;99.90;;;;;;5076405;28;20250;-49
2021/05/27 12:28:14;;;;;;;1.50;0.80;;;15.40;99.90;;;;;;5075101;28;20202;-58
2021/05/27 12:30:46;;;;;;;0.97;0.80;;;15.60;99.90;;;;;;5080706;28;20202;-56
2021/05/27 12:33:17;;;;;;;1.13;0.77;;;15.80;99.90;;;;;;5086180;28;20582;-55
2021/05/27 12:35:43;;;;;;;1.30;0.77;;;16.00;99.90;;;;;;5096304;28;20211;-57
2021/05/27 12:38:44;;;;;;;1.27;0.90;;;16.20;99.90;;;;;;5094990;28;20302;-57
2021/05/27 12:41:11;;;;;;;1.00;1.00;;;16.00;99.90;;;;;;5073902;28;20269;-56
2021/05/27 12:43:41;;;;;;;1.43;1.17;;;15.90;99.90;;;;;;5095208;28;20219;-51
2021/05/27 12:46:11;;;;;;;0.70;0.70;;;15.70;99.90;;;;;;5092559;28;20237;-57
2021/05/27 12:48:49;;;;;;;0.73;0.73;;;15.60;99.90;;;;;;5085306;28;20182;-53
2021/05/27 12:51:15;;;;;;;0.60;0.60;;;15.60;99.90;;;;;;5094032;28;20209;-57
2021/05/27 12:53:47;;;;;;;0.77;0.60;;;15.50;99.90;;;;;;5078612;28;20213;-49
2021/05/27 12:56:18;;;;;;;0.70;0.60;;;15.40;99.90;;;;;;5074970;28;20187;-55
2021/05/27 12:58:45;;;;;;;2.83;0.70;;;15.60;99.90;;;;;;5075500;28;20194;-54
2021/05/27 13:01:12;;;;;;;1.70;0.90;;;15.70;99.90;;;;;;5075160;28;20638;-49
2021/05/27 13:03:47;;;;;;;1.43;0.90;;;15.70;99.90;;;;;;5074443;28;20190;-51
2021/05/27 13:06:16;;;;;;;0.70;0.70;;;15.70;99.90;;;;;;5087928;28;20284;-54
2021/05/27 13:08:42;;;;;;;0.87;0.70;;;15.90;99.90;;;;;;5095185;28;20534;-53
2021/05/27 13:11:20;;;;;;;1.23;0.70;;;16.00;99.90;;;;;;5094963;28;20198;-59
2021/05/27 13:13:46;;;;;;;0.60;0.60;;;16.00;99.90;;;;;;5095486;28;20223;-57